createdAt,value
2023-03-06T00:02:49.601Z,3.50
2023-03-06T00:05:57.170Z,3.46
2023-03-06T00:09:01.222Z,3.43
2023-03-06T00:12:05.516Z,3.47
2023-03-06T00:15:10.833Z,3.47
2023-03-06T00:18:15.063Z,3.44
2023-03-06T00:21:18.932Z,3.49
2023-03-06T00:24:22.905Z,3.53
2023-03-06T00:27:27.329Z,3.51
2023-03-06T00:30:31.807Z,3.51
2023-03-06T00:33:35.412Z,3.51
2023-03-06T00:36:39.464Z,3.44
2023-03-06T00:39:43.888Z,3.42
2023-03-06T00:42:47.906Z,3.41
2023-03-06T00:45:52.013Z,3.47
2023-03-06T00:48:56.095Z,3.47
2023-03-06T00:52:00.654Z,3.44
2023-03-06T00:55:06.048Z,3.36
2023-03-06T00:58:10.190Z,3.41
2023-03-06T01:01:14.307Z,3.40
2023-03-06T01:04:18.343Z,3.37
2023-03-06T01:07:22.989Z,3.40
2023-03-06T01:10:27.576Z,3.39
2023-03-06T01:13:31.932Z,3.33
2023-03-06T01:16:36.270Z,3.36
2023-03-06T01:19:40.228Z,3.36
2023-03-06T01:22:44.429Z,3.35
2023-03-06T01:25:48.963Z,3.31
2023-03-06T01:28:53.352Z,3.28
2023-03-06T01:31:57.243Z,3.35
2023-03-06T01:35:01.231Z,3.28
2023-03-06T01:38:05.502Z,3.31
2023-03-06T01:41:10.931Z,3.31
2023-03-06T01:44:14.964Z,3.32
2023-03-06T01:47:19.213Z,3.28
2023-03-06T01:50:23.514Z,3.34
2023-03-06T01:53:28.299Z,3.25
2023-03-06T01:56:33.092Z,3.23
2023-03-06T01:59:38.594Z,3.18
2023-03-06T02:02:49.357Z,3.19
2023-03-06T02:05:54.318Z,3.21
2023-03-06T02:08:58.273Z,3.17
2023-03-06T02:12:06.112Z,3.12
2023-03-06T02:15:14.595Z,3.12
2023-03-06T02:18:18.869Z,3.07
2023-03-06T02:21:32.090Z,3.05
2023-03-06T02:24:54.119Z,3.09
2023-03-06T02:27:58.432Z,3.09
2023-03-06T02:31:02.434Z,3.05
2023-03-06T02:34:15.818Z,3.07
2023-03-06T02:37:20.316Z,3.07
2023-03-06T02:40:25.441Z,3.07
2023-03-06T02:43:32.962Z,3.03
2023-03-06T02:46:37.285Z,3.00
2023-03-06T02:49:41.332Z,2.95
2023-03-06T02:52:45.601Z,2.98
2023-03-06T02:55:50.550Z,2.98
2023-03-06T02:58:54.356Z,2.98
2023-03-06T03:01:58.612Z,2.92
2023-03-06T03:05:03.189Z,2.90
2023-03-06T03:08:07.255Z,2.97
2023-03-06T03:11:12.223Z,2.89
2023-03-06T03:14:16.650Z,2.91
2023-03-06T03:17:20.839Z,2.85
2023-03-06T03:20:25.145Z,2.83
2023-03-06T03:23:29.528Z,2.85
2023-03-06T03:26:33.684Z,2.76
2023-03-06T03:29:37.965Z,2.72
2023-03-06T03:32:42.339Z,2.72
2023-03-06T03:35:46.775Z,2.68
2023-03-06T03:38:50.869Z,2.73
2023-03-06T03:41:55.107Z,2.68
2023-03-06T03:44:59.282Z,2.71
2023-03-06T03:48:03.396Z,2.68
2023-03-06T03:51:13.433Z,2.62
2023-03-06T03:54:17.367Z,2.72
2023-03-06T03:57:21.547Z,2.67
2023-03-06T04:00:25.691Z,2.65
2023-03-06T04:03:29.990Z,2.65
2023-03-06T04:06:34.329Z,2.61
2023-03-06T04:09:38.438Z,2.63
2023-03-06T04:12:42.501Z,2.58
2023-03-06T04:15:47.286Z,2.56
2023-03-06T04:18:51.594Z,2.61
2023-03-06T04:21:55.678Z,2.58
2023-03-06T04:24:59.870Z,2.59
2023-03-06T04:28:04.481Z,2.56
2023-03-06T04:31:08.591Z,2.53
2023-03-06T04:34:12.385Z,2.52
2023-03-06T04:37:22.277Z,2.51
2023-03-06T04:40:32.026Z,2.43
2023-03-06T04:43:36.128Z,2.34
2023-03-06T04:46:40.293Z,2.32
2023-03-06T04:49:44.658Z,2.30
2023-03-06T04:52:48.524Z,2.25
2023-03-06T04:55:52.866Z,2.26
2023-03-06T04:58:56.804Z,2.23
2023-03-06T05:02:01.028Z,2.26
2023-03-06T05:05:05.573Z,2.27
2023-03-06T05:08:15.239Z,2.27
2023-03-06T05:11:19.152Z,2.22
2023-03-06T05:14:23.099Z,2.31
2023-03-06T05:17:27.345Z,2.27
2023-03-06T05:20:31.312Z,2.26
2023-03-06T05:23:38.605Z,2.29
2023-03-06T05:26:42.971Z,2.26
2023-03-06T05:29:47.404Z,2.23
2023-03-06T05:32:51.417Z,2.20
2023-03-06T05:35:55.573Z,2.16
2023-03-06T05:38:59.762Z,2.15
2023-03-06T05:42:04.405Z,2.10
2023-03-06T05:45:09.224Z,2.07
2023-03-06T05:48:13.841Z,2.16
2023-03-06T05:51:17.960Z,2.23
2023-03-06T05:54:24.342Z,2.29
2023-03-06T05:57:28.714Z,2.30
2023-03-06T06:00:32.637Z,2.37
2023-03-06T06:03:36.924Z,2.38
2023-03-06T06:06:40.917Z,2.42
2023-03-06T06:09:45.633Z,2.49
2023-03-06T06:12:49.901Z,2.53
2023-03-06T06:15:54.342Z,2.56
2023-03-06T06:18:59.033Z,2.57
2023-03-06T06:22:03.775Z,2.59
2023-03-06T06:25:08.432Z,2.62
2023-03-06T06:28:12.799Z,2.66
2023-03-06T06:31:16.862Z,2.68
2023-03-06T06:34:22.233Z,2.72
2023-03-06T06:37:26.565Z,2.71
2023-03-06T06:40:30.640Z,2.78
2023-03-06T06:43:35.231Z,2.82
2023-03-06T06:47:20.653Z,2.88
2023-03-06T06:50:04.128Z,2.89
2023-03-06T06:53:08.400Z,2.93
2023-03-06T06:56:12.720Z,3.03
2023-03-06T06:59:17.653Z,3.07
2023-03-06T07:02:21.909Z,3.12
2023-03-06T07:05:25.835Z,3.18
2023-03-06T07:08:30.698Z,3.17
2023-03-06T07:11:35.085Z,3.17
2023-03-06T07:14:41.372Z,3.26
2023-03-06T07:17:45.261Z,3.37
2023-03-06T07:20:49.482Z,3.33
2023-03-06T07:23:54.310Z,3.40
2023-03-06T07:26:58.131Z,3.44
2023-03-06T07:30:01.927Z,3.40
2023-03-06T07:33:06.104Z,3.40
2023-03-06T07:36:12.839Z,3.41
2023-03-06T07:39:18.498Z,3.37
2023-03-06T07:42:22.791Z,3.42
2023-03-06T07:45:27.417Z,3.51
2023-03-06T07:48:31.457Z,3.46
2023-03-06T07:51:35.377Z,3.47
2023-03-06T07:54:39.854Z,3.45
2023-03-06T07:57:43.837Z,3.45
2023-03-06T08:00:47.964Z,3.43
2023-03-06T08:03:52.523Z,3.48
2023-03-06T08:06:59.653Z,3.34
2023-03-06T08:10:05.040Z,3.40
2023-03-06T08:13:09.229Z,3.36
2023-03-06T08:16:13.698Z,3.44
2023-03-06T08:19:17.938Z,3.42
2023-03-06T08:22:21.798Z,3.31
2023-03-06T08:25:25.682Z,3.23
2023-03-06T08:28:29.847Z,3.28
2023-03-06T08:31:36.231Z,3.29
2023-03-06T08:34:41.106Z,3.31
2023-03-06T08:37:45.117Z,3.35
2023-03-06T08:40:49.169Z,3.44
2023-03-06T08:43:53.202Z,3.37
2023-03-06T08:46:57.653Z,3.45
2023-03-06T08:50:02.073Z,3.56
2023-03-06T08:53:06.053Z,3.62
2023-03-06T08:56:30.581Z,3.69
2023-03-06T08:59:34.498Z,3.78
2023-03-06T09:02:38.761Z,3.79
2023-03-06T09:05:42.902Z,3.80
2023-03-06T09:08:47.197Z,3.91
2023-03-06T09:11:51.275Z,4.07
2023-03-06T09:14:55.620Z,4.04
2023-03-06T09:17:59.742Z,3.96
2023-03-06T09:21:05.369Z,4.00
2023-03-06T09:24:09.375Z,3.96
2023-03-06T09:27:13.516Z,3.91
2023-03-06T09:30:18.578Z,3.97
2023-03-06T09:33:22.464Z,4.07
2023-03-06T09:36:26.928Z,4.15
2023-03-06T09:39:31.461Z,4.26
2023-03-06T09:42:36.199Z,4.45
2023-03-06T09:45:40.400Z,4.69
2023-03-06T09:49:14.077Z,5.07
2023-03-06T09:52:33.854Z,5.30
2023-03-06T09:55:40.183Z,5.40
2023-03-06T09:58:49.726Z,5.39
2023-03-06T10:02:31.206Z,5.40
2023-03-06T10:05:41.003Z,5.50
2023-03-06T10:08:58.196Z,5.45
2023-03-06T10:12:06.657Z,5.58
2023-03-06T10:15:18.070Z,5.60
2023-03-06T10:18:22.375Z,5.52
2023-03-06T10:21:44.464Z,5.38
2023-03-06T10:25:08.961Z,5.34
2023-03-06T10:28:19.622Z,5.27
2023-03-06T10:31:26.878Z,5.12
2023-03-06T10:34:38.746Z,4.92
2023-03-06T10:37:42.806Z,4.93
2023-03-06T10:41:08.242Z,4.99
2023-03-06T10:44:12.047Z,5.27
2023-03-06T10:47:36.850Z,5.46
2023-03-06T10:50:41.179Z,5.34
2023-03-06T10:53:52.152Z,5.30
2023-03-06T10:56:56.079Z,5.30
2023-03-06T11:00:24.747Z,5.40
2023-03-06T11:03:29.709Z,5.66
2023-03-06T11:06:37.720Z,5.92
2023-03-06T11:10:04.819Z,6.11
2023-03-06T11:13:37.290Z,6.23
2023-03-06T11:16:52.660Z,6.39
2023-03-06T11:20:21.583Z,6.59
2023-03-06T11:23:46.773Z,6.68
2023-03-06T11:26:58.272Z,6.62
2023-03-06T11:30:14.803Z,6.42
2023-03-06T11:33:54.264Z,6.19
2023-03-06T11:37:32.298Z,5.99
2023-03-06T11:40:54.058Z,5.78
2023-03-06T11:44:06.305Z,5.79
2023-03-06T11:47:10.750Z,5.92
2023-03-06T11:50:22.892Z,6.01
2023-03-06T11:53:36.953Z,6.23
2023-03-06T11:57:01.692Z,6.42
2023-03-06T12:00:22.694Z,6.63
2023-03-06T12:03:44.026Z,6.63
2023-03-06T12:07:22.010Z,6.59
2023-03-06T12:10:29.049Z,6.26
2023-03-06T12:13:49.817Z,6.06
2023-03-06T12:17:06.953Z,5.88
2023-03-06T12:20:14.045Z,5.78
2023-03-06T12:23:55.119Z,5.59
2023-03-06T12:27:14.572Z,5.68
2023-03-06T12:30:38.544Z,5.94
2023-03-06T12:33:47.336Z,5.98
2023-03-06T12:37:14.097Z,5.70
2023-03-06T12:40:28.858Z,5.18
2023-03-06T12:43:43.128Z,4.96
2023-03-06T12:46:54.060Z,4.98
2023-03-06T12:50:13.437Z,4.88
2023-03-06T12:53:29.045Z,5.01
2023-03-06T12:56:33.824Z,4.95
2023-03-06T12:59:44.588Z,4.87
2023-03-06T13:03:04.835Z,4.82
2023-03-06T13:06:44.953Z,5.05
2023-03-06T13:10:26.921Z,5.04
2023-03-06T13:13:43.168Z,4.92
2023-03-06T13:16:47.337Z,4.86
2023-03-06T13:20:13.425Z,4.78
2023-03-06T13:23:32.276Z,4.94
2023-03-06T13:26:36.061Z,4.86
2023-03-06T13:29:39.777Z,4.68
2023-03-06T13:32:43.761Z,4.39
2023-03-06T13:35:52.798Z,4.18
2023-03-06T13:39:00.455Z,3.99
2023-03-06T13:42:07.196Z,4.02
2023-03-06T13:45:25.817Z,4.09
2023-03-06T13:48:44.740Z,4.26
2023-03-06T13:51:52.409Z,4.36
2023-03-06T13:55:14.861Z,4.62
2023-03-06T13:58:44.924Z,4.78
2023-03-06T14:02:19.848Z,4.80
2023-03-06T14:05:25.564Z,4.90
2023-03-06T14:08:33.049Z,5.05
2023-03-06T14:11:39.249Z,5.22
2023-03-06T14:14:50.272Z,5.31
2023-03-06T14:18:14.010Z,5.38
2023-03-06T14:21:31.946Z,5.44
2023-03-06T14:24:43.354Z,5.53
2023-03-06T14:27:51.344Z,5.51
2023-03-06T14:30:56.905Z,5.53
2023-03-06T14:34:15.884Z,5.47
2023-03-06T14:37:24.540Z,5.50
2023-03-06T14:40:43.853Z,5.54
2023-03-06T14:43:47.726Z,5.57
2023-03-06T14:47:21.488Z,5.60
2023-03-06T14:50:28.941Z,5.63
2023-03-06T14:53:34.519Z,5.59
2023-03-06T14:56:42.944Z,5.58
2023-03-06T14:59:55.960Z,5.53
2023-03-06T15:03:00.410Z,5.59
2023-03-06T15:06:05.654Z,5.57
2023-03-06T15:09:20.410Z,5.56
2023-03-06T15:12:24.201Z,5.52
2023-03-06T15:15:31.257Z,5.53
2023-03-06T15:18:39.042Z,5.55
2023-03-06T15:21:48.329Z,5.52
2023-03-06T15:24:53.305Z,5.44
2023-03-06T15:28:00.532Z,5.40
2023-03-06T15:31:17.557Z,5.39
2023-03-06T15:34:25.763Z,5.36
2023-03-06T15:37:29.550Z,5.37
2023-03-06T15:40:34.140Z,5.35
2023-03-06T15:43:40.607Z,5.33
2023-03-06T15:46:44.401Z,5.28
2023-03-06T15:49:57.846Z,5.27
2023-03-06T15:53:01.655Z,5.19
2023-03-06T15:56:05.901Z,5.26
2023-03-06T15:59:23.921Z,5.26
2023-03-06T16:02:27.800Z,5.19
2023-03-06T16:05:31.987Z,5.04
2023-03-06T16:08:36.193Z,5.15
2023-03-06T16:11:46.786Z,5.07
2023-03-06T16:14:51.196Z,5.01
2023-03-06T16:17:59.921Z,4.97
2023-03-06T16:21:06.345Z,4.93
2023-03-06T16:24:11.903Z,4.97
2023-03-06T16:27:23.376Z,4.96
2023-03-06T16:30:30.729Z,4.94
2023-03-06T16:33:34.546Z,4.86
2023-03-06T16:36:38.758Z,4.82
2023-03-06T16:39:42.575Z,4.73
2023-03-06T16:42:46.993Z,4.76
2023-03-06T16:45:51.403Z,4.65
2023-03-06T16:48:55.489Z,4.62
2023-03-06T16:52:00.517Z,4.61
2023-03-06T16:55:04.757Z,4.69
2023-03-06T16:58:09.078Z,4.53
2023-03-06T17:01:18.327Z,4.43
2023-03-06T17:04:22.564Z,4.42
2023-03-06T17:07:26.748Z,4.45
2023-03-06T17:10:31.176Z,4.53
2023-03-06T17:13:35.223Z,4.47
2023-03-06T17:16:40.394Z,4.54
2023-03-06T17:19:48.960Z,4.49
2023-03-06T17:22:53.311Z,4.47
2023-03-06T17:26:05.207Z,4.52
2023-03-06T17:29:09.661Z,4.48
2023-03-06T17:32:14.333Z,4.41
2023-03-06T17:35:18.716Z,4.42
2023-03-06T17:38:23.042Z,4.30
2023-03-06T17:41:27.423Z,4.32
2023-03-06T17:44:31.785Z,4.32
2023-03-06T17:47:35.980Z,4.28
2023-03-06T17:50:40.286Z,4.30
2023-03-06T17:53:44.281Z,4.11
2023-03-06T17:56:48.612Z,4.06
2023-03-06T17:59:53.102Z,3.87
2023-03-06T18:02:57.328Z,3.76
2023-03-06T18:06:03.500Z,3.76
2023-03-06T18:09:09.982Z,3.71
2023-03-06T18:12:13.715Z,3.69
2023-03-06T18:15:17.893Z,3.68
2023-03-06T18:18:22.554Z,3.68
2023-03-06T18:21:26.590Z,3.74
2023-03-06T18:24:30.970Z,3.81
2023-03-06T18:27:35.773Z,3.78
2023-03-06T18:30:42.328Z,3.75
2023-03-06T18:33:49.902Z,3.75
2023-03-06T18:36:54.154Z,3.75
2023-03-06T18:39:58.068Z,3.76
2023-03-06T18:43:02.903Z,3.71
2023-03-06T18:46:07.252Z,3.68
2023-03-06T18:49:12.630Z,3.70
2023-03-06T18:52:16.608Z,3.68
2023-03-06T18:55:20.775Z,3.70
2023-03-06T18:58:25.088Z,3.68
2023-03-06T19:01:31.167Z,3.70
2023-03-06T19:04:37.462Z,3.78
2023-03-06T19:07:41.327Z,3.86
2023-03-06T19:10:46.302Z,3.76
2023-03-06T19:13:50.593Z,3.68
2023-03-06T19:16:55.134Z,3.54
2023-03-06T19:19:59.278Z,3.33
2023-03-06T19:23:03.284Z,3.20
2023-03-06T19:26:08.067Z,3.07
2023-03-06T19:29:12.378Z,3.02
2023-03-06T19:32:16.799Z,2.93
2023-03-06T19:35:20.809Z,2.83
2023-03-06T19:38:25.074Z,2.83
2023-03-06T19:41:29.139Z,2.85
2023-03-06T19:44:33.557Z,2.83
2023-03-06T19:47:38.010Z,2.82
2023-03-06T19:50:42.289Z,2.79
2023-03-06T19:53:46.318Z,2.77
2023-03-06T19:56:51.251Z,2.74
2023-03-06T19:59:57.498Z,2.67
2023-03-06T20:03:02.611Z,2.66
2023-03-06T20:06:09.165Z,2.55
2023-03-06T20:09:13.266Z,2.52
2023-03-06T20:12:17.669Z,2.42
2023-03-06T20:15:22.912Z,2.41
2023-03-06T20:18:27.221Z,2.29
2023-03-06T20:21:35.357Z,2.21
2023-03-06T20:24:39.243Z,2.13
2023-03-06T20:27:43.212Z,2.13
2023-03-06T20:30:47.564Z,2.09
2023-03-06T20:33:52.848Z,2.06
2023-03-06T20:36:58.034Z,2.07
2023-03-06T20:40:01.806Z,2.02
2023-03-06T20:43:06.415Z,2.00
2023-03-06T20:46:11.934Z,1.94
2023-03-06T20:49:16.320Z,1.91
2023-03-06T20:52:20.721Z,1.92
2023-03-06T20:55:25.421Z,1.96
2023-03-06T20:58:31.721Z,1.92
2023-03-06T21:01:39.027Z,1.91
2023-03-06T21:04:43.563Z,1.88
2023-03-06T21:07:47.654Z,1.84
2023-03-06T21:10:51.720Z,1.86
2023-03-06T21:13:55.980Z,1.82
2023-03-06T21:17:01.277Z,1.80
2023-03-06T21:20:06.477Z,1.80
2023-03-06T21:23:10.779Z,1.78
2023-03-06T21:26:20.180Z,1.77
2023-03-06T21:29:24.091Z,1.81
2023-03-06T21:32:29.186Z,1.78
2023-03-06T21:35:38.075Z,1.84
2023-03-06T21:38:42.065Z,1.86
2023-03-06T21:41:46.285Z,1.93
2023-03-06T21:44:50.645Z,2.00
2023-03-06T21:47:54.897Z,2.03
2023-03-06T21:51:11.013Z,1.99
2023-03-06T21:54:14.924Z,1.98
2023-03-06T21:57:19.099Z,1.99
2023-03-06T22:00:24.490Z,2.00
2023-03-06T22:03:29.164Z,2.01
2023-03-06T22:06:33.407Z,2.05
2023-03-06T22:09:37.461Z,2.01
2023-03-06T22:12:41.887Z,1.97
2023-03-06T22:15:53.168Z,1.99
2023-03-06T22:18:57.620Z,1.99
2023-03-06T22:22:01.532Z,1.91
2023-03-06T22:25:05.965Z,1.88
2023-03-06T22:28:09.740Z,1.88
2023-03-06T22:31:16.513Z,1.87
2023-03-06T22:34:20.592Z,1.91
2023-03-06T22:37:24.768Z,1.94
2023-03-06T22:40:28.893Z,1.93
2023-03-06T22:43:33.399Z,1.94
2023-03-06T22:46:38.592Z,2.03
2023-03-06T22:49:42.729Z,2.07
2023-03-06T22:52:46.815Z,2.12
2023-03-06T22:55:50.729Z,2.15
2023-03-06T22:58:54.795Z,2.19
2023-03-06T23:01:58.812Z,2.25
2023-03-06T23:05:03.716Z,2.27
2023-03-06T23:08:08.289Z,2.31
2023-03-06T23:11:15.207Z,2.36
2023-03-06T23:14:19.838Z,2.26
2023-03-06T23:17:23.708Z,2.34
2023-03-06T23:20:28.335Z,2.38
2023-03-06T23:23:32.516Z,2.35
2023-03-06T23:26:37.138Z,2.35
2023-03-06T23:29:40.783Z,2.35
2023-03-06T23:32:46.022Z,2.42
2023-03-06T23:35:50.288Z,2.54
2023-03-06T23:38:54.923Z,2.43
2023-03-06T23:41:59.331Z,2.55
2023-03-06T23:45:03.342Z,2.55
2023-03-06T23:48:07.942Z,2.54
2023-03-06T23:51:17.495Z,2.54
2023-03-06T23:54:21.195Z,2.57
2023-03-06T23:57:25.290Z,2.67
